DGAAFKKD

Guest
Details From DGAA - Accra_Kotoka_Intl
To FKKD - Douala
Flight Number -
Tags decoded
Created
Modified
Stats Distance 634 nm / 1,175 km
Max Altitude 0 ft / 0 m
Waypoints 4
Social Downloads 0
Likes 0
Share VATSIM

Download

Looking for another format? Having issues loading an existing format? Contact us
Advertisement - Login to hide

Notes

Requested: DGAA ADA UA609 LAG UR984 TI FKKD Unmatched points: UA609 UR984

Route

DGAA LAG TI FKKD

ID Type Via Altitude Latitude Longitude Leg Dist Tot Dist Heading (true) Name
O DGAA APT - 0 ft / 0 m 5.60258˚ -0.16760˚ - 0 nm - Accra_Kotoka_Intl
LAG VOR - 0 ft / 0 m 6.70846˚ 3.32745˚ 219 nm 219 nm 72° / 73° LAGOS VOR-DME
TI NDB - 0 ft / 0 m 4.08764˚ 9.35589˚ 393 nm 612 nm 113° / 114° TIKO NDB
O FKKD APT - 0 ft / 0 m 4.01421˚ 9.71654˚ 22 nm 634 nm 102° / 102° Douala

Altitude Profile

Advertisement - Login to hide

Weather


0- 5 10 15 20 25 30 35+ Temperature / ° C

Clouds and Precipitation
Forecast for 2018-05-25 12:00 UTC. Updated 2 hours ago

Ground ~20,000 ft ~40,000 ft Winds

DGAA

Details ICAO DGAA (ACC)
Name Accra_Kotoka_Intl
Region Ghana
Timezone Africa/Accra (UTC+0.0)
Stats Elevation 204 ft / 62 m (AMSL)
Location 5.602578° -0.167602°
Runways 1
Magnetic Variation 3.373° W

METAR

DGAA 251200Z 21014KT 9999 FEW024 31/24 Q1011 NOSIG

Decode

TAF

TAF DGAA 251100Z 2512/2618 19010KT 9999 SCT026 PROB40 TEMPO 2513/2517 10015G25KT 5000 TSRA OVC015 SCT028CB BECM2523/2601 27005KT

Decode

Departure Runways

ID Width Length Bearing (true) Bearing (mag) Surface Threshold Offset Overrun Length
03 200 ft / 61 m 11,176 ft / 3,406 m 22.00° 25.37° Asphalt 0 ft / 0 m 351 ft / 107 m
21 200 ft / 61 m 11,176 ft / 3,406 m 202.00° 205.37° Asphalt 1,355 ft / 413 m 0 ft / 0 m

FKKD

Details ICAO FKKD (DLA)
Name Douala
Region Cameroon
Timezone Africa/Douala (UTC+1.0)
Stats Elevation 33 ft / 10 m (AMSL)
Location 4.014208° 9.716538°
Runways 2
Magnetic Variation 1.053° W

METAR

FKKD 251200Z 29004KT 200V350 9999 BKN016 FEW020CB 32/24 Q1010 NOSIG

Decode

TAF

TAF FKKD 251100Z 2512/2618 23003KT 9999 BKN016 FEW020CB TEMPO 2520/2606 TS BKN013 FEW016CB TEMPO 2522/2605 4000 TSRA BKN009 SCT016CB

Decode

Destination Runways

ID Width Length Bearing (true) Bearing (mag) Surface Threshold Offset Overrun Length
03 147 ft / 45 m 8,210 ft / 2,502 m 27.00° 28.05° Asphalt 350 ft / 107 m 0 ft / 0 m
12 148 ft / 45 m 9,363 ft / 2,854 m 116.94° 117.99° Asphalt 0 ft / 0 m 164 ft / 50 m
21 147 ft / 45 m 8,210 ft / 2,502 m 207.00° 208.05° Asphalt 350 ft / 107 m 0 ft / 0 m
30 148 ft / 45 m 9,363 ft / 2,854 m 296.94° 297.99° Asphalt 0 ft / 0 m 164 ft / 50 m

Approach Navaids

Runway Type Ident Frequency Range Bearing (true) Bearing (mag) Slope Elevation
30 Localiser DL 110.30 MHz 18 nm / 33 km 297.68° 298.73° - 25 ft / 8 m (AMSL)
30 Glidescope DL 110.30 MHz 10 nm / 19 km 296.94° 297.99° 3.00° 33 ft / 10 m (AMSL)
30 DME DL 110.30 MHz 18 nm / 33 km - - - 33 ft / 10 m (AMSL)

Popular Alternatives